createdAt,value
2023-01-10T00:00:37.649Z,12.15
2023-01-10T00:03:06.298Z,12.60
2023-01-10T00:05:32.935Z,11.82
2023-01-10T00:07:59.672Z,10.48
2023-01-10T00:10:26.295Z,11.45
2023-01-10T00:13:11.473Z,11.13
2023-01-10T00:15:38.817Z,10.77
2023-01-10T00:18:05.748Z,10.70
2023-01-10T00:20:32.762Z,10.38
2023-01-10T00:22:59.530Z,9.65
2023-01-10T00:25:26.129Z,10.73
2023-01-10T00:28:15.194Z,9.80
2023-01-10T00:30:41.848Z,9.88
2023-01-10T00:33:09.015Z,9.70
2023-01-10T00:35:35.600Z,9.77
2023-01-10T00:38:05.794Z,9.13
2023-01-10T00:40:33.725Z,7.95
2023-01-10T00:43:19.323Z,6.90
2023-01-10T00:45:46.869Z,6.97
2023-01-10T00:48:17.389Z,5.60
2023-01-10T00:50:43.999Z,5.45
2023-01-10T00:53:10.545Z,5.63
2023-01-10T00:55:37.335Z,4.50
2023-01-10T00:58:04.347Z,4.32
2023-01-10T01:00:30.990Z,4.20
2023-01-10T01:02:57.610Z,3.38
2023-01-10T01:05:24.193Z,3.35
2023-01-10T01:07:51.802Z,3.60
2023-01-10T01:10:28.428Z,2.80
2023-01-10T01:12:56.973Z,3.08
2023-01-10T01:17:50.262Z,2.30
2023-01-10T01:20:17.407Z,2.72
2023-01-10T01:22:44.016Z,2.30
2023-01-10T01:25:10.593Z,2.35
2023-01-10T01:27:38.175Z,2.90
2023-01-10T01:30:09.028Z,2.77
2023-01-10T01:32:35.896Z,2.75
2023-01-10T01:35:02.701Z,2.58
2023-01-10T01:37:29.240Z,3.30
2023-01-10T01:39:55.797Z,3.38
2023-01-10T01:42:32.887Z,3.35
2023-01-10T01:45:25.035Z,3.75
2023-01-10T01:48:14.192Z,3.83
2023-01-10T01:51:05.146Z,4.57
2023-01-10T01:53:43.169Z,4.93
2023-01-10T01:56:17.264Z,5.40
2023-01-10T01:58:56.606Z,4.47
2023-01-10T02:01:23.338Z,5.03
2023-01-10T02:03:54.002Z,5.47
2023-01-10T02:06:21.552Z,5.88
2023-01-10T02:09:07.923Z,5.18
2023-01-10T02:11:34.504Z,7.20
2023-01-10T02:14:01.562Z,6.30
2023-01-10T02:16:28.145Z,7.65
2023-01-10T02:18:54.730Z,8.65
2023-01-10T02:21:56.330Z,9.10
2023-01-10T02:24:31.948Z,8.50
2023-01-10T02:27:11.708Z,7.47
2023-01-10T02:29:47.121Z,8.05
2023-01-10T02:32:43.875Z,7.55
2023-01-10T02:35:32.894Z,8.15
2023-01-10T02:38:13.195Z,8.23
2023-01-10T02:40:49.972Z,9.02
2023-01-10T02:43:21.170Z,9.23
2023-01-10T02:45:58.798Z,7.53
2023-01-10T02:48:25.349Z,7.95
2023-01-10T02:51:11.485Z,7.68
2023-01-10T02:53:42.219Z,7.78
2023-01-10T02:56:30.472Z,8.50
2023-01-10T03:01:58.852Z,7.60
2023-01-10T03:04:28.533Z,9.13
2023-01-10T03:07:01.801Z,8.15
2023-01-10T03:09:57.140Z,8.10
2023-01-10T03:12:55.339Z,9.02
2023-01-10T03:17:52.223Z,7.97
2023-01-10T03:20:20.489Z,8.40
2023-01-10T03:22:47.842Z,9.02
2023-01-10T03:25:16.509Z,7.80
2023-01-10T03:27:58.268Z,7.40
2023-01-10T03:30:30.900Z,8.43
2023-01-10T03:32:58.269Z,7.60
2023-01-10T03:35:35.268Z,7.65
2023-01-10T03:38:09.925Z,7.43
2023-01-10T03:40:42.310Z,7.38
2023-01-10T03:43:32.971Z,7.43
2023-01-10T03:46:04.726Z,7.15
2023-01-10T03:48:35.111Z,7.47
2023-01-10T03:51:03.908Z,6.55
2023-01-10T03:53:32.013Z,6.72
2023-01-10T03:55:58.749Z,7.78
2023-01-10T03:58:25.820Z,7.80
2023-01-10T04:00:52.519Z,7.45
2023-01-10T04:03:19.280Z,7.03
2023-01-10T04:05:45.902Z,7.20
2023-01-10T04:08:12.452Z,6.95
2023-01-10T04:10:39.054Z,7.70
2023-01-10T04:13:05.780Z,7.03
2023-01-10T04:15:32.363Z,7.05
2023-01-10T04:17:58.992Z,7.35
2023-01-10T04:20:26.637Z,8.80
2023-01-10T04:22:54.761Z,7.07
2023-01-10T04:25:22.630Z,8.07
2023-01-10T04:27:52.622Z,7.75
2023-01-10T04:30:20.042Z,7.60
2023-01-10T04:32:47.558Z,7.55
2023-01-10T04:35:14.255Z,7.28
2023-01-10T04:37:40.865Z,8.60
2023-01-10T04:40:08.318Z,6.57
2023-01-10T04:42:34.866Z,7.25
2023-01-10T04:45:01.416Z,7.78
2023-01-10T04:47:28.063Z,7.65
2023-01-10T04:49:54.618Z,7.45
2023-01-10T04:52:21.273Z,7.65
2023-01-10T04:54:47.835Z,7.80
2023-01-10T04:57:14.411Z,8.98
2023-01-10T04:59:40.956Z,7.30
2023-01-10T05:02:07.581Z,8.35
2023-01-10T05:04:34.228Z,8.35
2023-01-10T05:07:00.814Z,8.18
2023-01-10T05:09:27.392Z,7.78
2023-01-10T05:11:53.951Z,9.43
2023-01-10T05:14:20.522Z,8.25
2023-01-10T05:16:47.211Z,7.20
2023-01-10T05:19:13.908Z,7.30
2023-01-10T05:21:40.521Z,8.15
2023-01-10T05:24:07.273Z,8.27
2023-01-10T05:26:33.936Z,7.80
2023-01-10T05:29:00.546Z,6.95
2023-01-10T05:31:27.139Z,6.80
2023-01-10T05:33:53.744Z,6.60
2023-01-10T05:36:20.411Z,7.28
2023-01-10T05:38:47.075Z,7.25
2023-01-10T05:41:13.684Z,6.47
2023-01-10T05:43:40.266Z,6.70
2023-01-10T05:46:07.133Z,6.13
2023-01-10T05:48:33.813Z,6.55
2023-01-10T05:51:00.529Z,7.80
2023-01-10T05:53:27.249Z,7.80
2023-01-10T05:55:58.772Z,6.65
2023-01-10T05:58:26.077Z,6.35
2023-01-10T06:00:53.384Z,6.60
2023-01-10T06:03:19.994Z,6.85
2023-01-10T06:05:48.764Z,7.75
2023-01-10T06:08:15.710Z,6.43
2023-01-10T06:10:43.195Z,6.47
2023-01-10T06:13:10.099Z,6.55
2023-01-10T06:15:36.809Z,6.40
2023-01-10T06:18:04.225Z,7.28
2023-01-10T06:20:30.855Z,6.55
2023-01-10T06:22:58.730Z,7.13
2023-01-10T06:25:25.376Z,7.45
2023-01-10T06:27:52.113Z,6.90
2023-01-10T06:30:18.815Z,6.35
2023-01-10T06:32:45.510Z,6.95
2023-01-10T06:35:12.172Z,6.40
2023-01-10T06:37:38.850Z,6.07
2023-01-10T06:40:06.238Z,6.60
2023-01-10T06:42:32.862Z,7.10
2023-01-10T06:44:59.429Z,7.05
2023-01-10T06:47:26.048Z,6.40
2023-01-10T06:49:52.660Z,6.78
2023-01-10T06:52:19.282Z,6.82
2023-01-10T06:54:45.835Z,7.65
2023-01-10T06:57:12.413Z,7.40
2023-01-10T06:59:38.971Z,6.57
2023-01-10T07:02:05.699Z,9.27
2023-01-10T07:04:32.414Z,7.95
2023-01-10T07:06:58.976Z,7.45
2023-01-10T07:09:25.584Z,8.05
2023-01-10T07:11:52.118Z,8.00
2023-01-10T07:14:18.750Z,8.20
2023-01-10T07:16:45.299Z,9.18
2023-01-10T07:19:13.603Z,11.73
2023-01-10T07:21:40.610Z,8.20
2023-01-10T07:24:08.093Z,9.55
2023-01-10T07:26:34.835Z,10.65
2023-01-10T07:29:01.464Z,10.15
2023-01-10T07:31:28.303Z,8.88
2023-01-10T07:33:54.863Z,9.18
2023-01-10T07:36:21.617Z,10.18
2023-01-10T07:38:48.220Z,9.80
2023-01-10T07:41:14.863Z,11.73
2023-01-10T07:43:41.484Z,10.35
2023-01-10T07:46:09.662Z,10.20
2023-01-10T07:48:36.769Z,10.55
2023-01-10T07:51:03.532Z,10.60
2023-01-10T07:53:30.298Z,11.13
2023-01-10T07:56:01.539Z,10.45
2023-01-10T07:58:28.772Z,10.13
2023-01-10T08:00:59.695Z,11.60
2023-01-10T08:03:27.037Z,10.27
2023-01-10T08:06:01.085Z,11.55
2023-01-10T08:08:27.979Z,11.52
2023-01-10T08:10:54.713Z,11.60
2023-01-10T08:13:21.370Z,11.13
2023-01-10T08:15:50.441Z,10.85
2023-01-10T08:18:17.351Z,11.95
2023-01-10T08:20:43.957Z,11.85
2023-01-10T08:23:10.595Z,11.55
2023-01-10T08:25:39.412Z,11.90
2023-01-10T08:28:06.366Z,11.18
2023-01-10T08:30:32.997Z,11.38
2023-01-10T08:33:02.750Z,11.18
2023-01-10T08:35:29.566Z,10.32
2023-01-10T08:38:00.211Z,10.73
2023-01-10T08:40:27.473Z,10.45
2023-01-10T08:43:02.113Z,9.68
2023-01-10T08:45:29.567Z,10.07
2023-01-10T08:47:56.480Z,10.25
2023-01-10T08:50:23.702Z,11.55
2023-01-10T08:52:51.287Z,11.07
2023-01-10T08:55:19.329Z,10.80
2023-01-10T08:57:46.035Z,10.55
2023-01-10T09:00:13.222Z,12.32
2023-01-10T09:02:40.420Z,10.48
2023-01-10T09:05:15.071Z,10.88
2023-01-10T09:07:48.779Z,12.35
2023-01-10T09:10:15.439Z,13.43
2023-01-10T09:12:57.307Z,12.65
2023-01-10T09:15:29.900Z,12.48
2023-01-10T09:17:57.997Z,12.13
2023-01-10T09:20:25.849Z,13.10
2023-01-10T09:22:52.790Z,11.98
2023-01-10T09:25:19.617Z,11.40
2023-01-10T09:27:46.376Z,12.48
2023-01-10T09:30:13.491Z,12.10
2023-01-10T09:32:40.250Z,12.23
2023-01-10T09:35:07.040Z,11.23
2023-01-10T09:37:34.636Z,12.52
2023-01-10T09:40:01.438Z,12.17
2023-01-10T09:42:43.263Z,12.45
2023-01-10T09:45:37.507Z,12.80
2023-01-10T09:48:10.936Z,13.50
2023-01-10T09:51:23.358Z,12.50
2023-01-10T09:53:53.444Z,11.10
2023-01-10T09:56:20.471Z,12.18
2023-01-10T09:58:48.076Z,11.85
2023-01-10T10:01:14.611Z,12.47
2023-01-10T10:04:05.718Z,12.88
2023-01-10T10:06:34.539Z,11.25
2023-01-10T10:09:02.596Z,13.13
2023-01-10T10:12:15.334Z,11.60
2023-01-10T10:15:09.810Z,12.07
2023-01-10T10:17:51.057Z,11.40
2023-01-10T10:20:28.805Z,12.30
2023-01-10T10:23:18.485Z,11.38
2023-01-10T10:25:55.357Z,10.95
2023-01-10T10:28:34.474Z,9.35
2023-01-10T10:31:22.201Z,10.70
2023-01-10T10:34:36.666Z,8.77
2023-01-10T10:37:34.076Z,9.73
2023-01-10T10:40:04.215Z,9.82
2023-01-10T10:42:35.085Z,9.63
2023-01-10T10:45:04.977Z,9.68
2023-01-10T10:47:34.230Z,9.85
2023-01-10T10:50:26.229Z,9.77
2023-01-10T10:52:52.836Z,10.30
2023-01-10T10:55:25.590Z,11.50
2023-01-10T10:57:59.870Z,10.77
2023-01-10T11:00:28.264Z,10.82
2023-01-10T11:03:00.499Z,10.55
2023-01-10T11:05:36.839Z,11.35
2023-01-10T11:08:10.259Z,10.10
2023-01-10T11:10:38.411Z,10.80
2023-01-10T11:13:20.425Z,12.65
2023-01-10T11:15:49.192Z,10.70
2023-01-10T11:18:18.415Z,12.65
2023-01-10T11:21:00.263Z,12.00
2023-01-10T11:23:32.924Z,12.00
2023-01-10T11:25:59.657Z,12.15
2023-01-10T11:28:30.399Z,12.55
2023-01-10T11:30:57.256Z,11.23
2023-01-10T11:33:28.450Z,14.35
2023-01-10T11:36:10.513Z,12.68
2023-01-10T11:38:37.115Z,11.13
2023-01-10T11:41:13.965Z,13.93
2023-01-10T11:43:41.187Z,13.05
2023-01-10T11:46:28.157Z,11.88
2023-01-10T11:49:08.244Z,11.38
2023-01-10T11:51:40.587Z,11.05
2023-01-10T11:54:10.475Z,11.52
2023-01-10T11:56:39.887Z,10.75
2023-01-10T11:59:12.748Z,10.98
2023-01-10T12:01:46.088Z,10.85
2023-01-10T12:04:16.907Z,11.07
2023-01-10T12:06:45.258Z,10.48
2023-01-10T12:09:42.283Z,10.50
2023-01-10T12:12:28.050Z,10.65
2023-01-10T12:14:57.109Z,10.20
2023-01-10T12:17:23.646Z,11.18
2023-01-10T12:19:55.535Z,11.80
2023-01-10T12:22:27.426Z,11.85
2023-01-10T12:24:54.387Z,9.25
2023-01-10T12:27:23.233Z,9.18
2023-01-10T12:30:13.666Z,9.45
2023-01-10T12:32:47.112Z,10.32
2023-01-10T12:35:21.348Z,11.00
2023-01-10T12:38:06.814Z,10.45
2023-01-10T12:40:50.290Z,9.93
2023-01-10T12:44:01.848Z,9.48
2023-01-10T12:47:05.987Z,9.23
2023-01-10T12:49:36.118Z,10.68
2023-01-10T12:52:13.076Z,9.48
2023-01-10T12:54:39.635Z,9.32
2023-01-10T12:57:17.561Z,9.43
2023-01-10T12:59:45.095Z,8.65
2023-01-10T13:02:18.676Z,8.45
2023-01-10T13:04:48.992Z,8.68
2023-01-10T13:07:16.154Z,9.10
2023-01-10T13:09:43.834Z,8.70
2023-01-10T13:12:20.282Z,9.43
2023-01-10T13:14:46.807Z,10.75
2023-01-10T13:17:16.399Z,7.38
2023-01-10T13:19:42.930Z,7.57
2023-01-10T13:22:27.729Z,6.07
2023-01-10T13:25:01.816Z,7.25
2023-01-10T13:27:32.563Z,6.03
2023-01-10T13:29:59.947Z,5.97
2023-01-10T13:32:26.679Z,5.85
2023-01-10T13:34:53.724Z,5.65
2023-01-10T13:37:26.238Z,5.97
2023-01-10T13:39:55.310Z,5.47
2023-01-10T13:42:53.618Z,4.90
2023-01-10T13:45:28.101Z,4.80
2023-01-10T13:47:55.736Z,5.38
2023-01-10T13:50:38.509Z,4.60
2023-01-10T13:53:06.917Z,5.22
2023-01-10T13:55:39.619Z,4.32
2023-01-10T13:58:21.259Z,4.15
2023-01-10T14:01:11.126Z,6.07
2023-01-10T14:03:40.775Z,4.35
2023-01-10T14:06:28.616Z,4.32
2023-01-10T14:08:57.551Z,4.80
2023-01-10T14:11:27.155Z,3.97
2023-01-10T14:13:56.618Z,3.90
2023-01-10T14:16:34.106Z,5.13
2023-01-10T14:19:02.486Z,4.70
2023-01-10T14:21:30.550Z,5.65
2023-01-10T14:23:58.277Z,4.93
2023-01-10T14:26:37.672Z,3.88
2023-01-10T14:29:13.956Z,4.38
2023-01-10T14:31:47.137Z,3.83
2023-01-10T14:34:24.095Z,4.32
2023-01-10T14:37:16.523Z,3.92
2023-01-10T14:39:43.402Z,3.85
2023-01-10T14:42:14.525Z,4.32
2023-01-10T14:44:53.642Z,3.92
2023-01-10T14:47:29.481Z,3.33
2023-01-10T14:50:16.565Z,3.35
2023-01-10T14:52:43.253Z,3.42
2023-01-10T14:55:18.787Z,3.45
2023-01-10T14:58:01.646Z,3.10
2023-01-10T15:00:33.921Z,3.28
2023-01-10T15:03:03.915Z,3.03
2023-01-10T15:05:39.495Z,2.92
2023-01-10T15:08:24.996Z,4.95
2023-01-10T15:11:06.836Z,3.58
2023-01-10T15:13:36.877Z,3.28
2023-01-10T15:16:05.521Z,3.05
2023-01-10T15:18:38.712Z,2.72
2023-01-10T15:21:05.759Z,2.53
2023-01-10T15:23:36.641Z,2.95
2023-01-10T15:26:06.639Z,2.72
2023-01-10T15:28:35.928Z,2.83
2023-01-10T15:31:06.501Z,3.03
2023-01-10T15:33:35.600Z,2.38
2023-01-10T15:36:06.113Z,2.38
2023-01-10T15:38:36.576Z,3.45
2023-01-10T15:41:06.101Z,3.05
2023-01-10T15:43:34.955Z,2.47
2023-01-10T15:46:04.088Z,3.50
2023-01-10T15:48:39.624Z,3.63
2023-01-10T15:51:25.400Z,2.95
2023-01-10T15:53:53.698Z,3.58
2023-01-10T15:56:42.397Z,2.38
2023-01-10T15:59:32.788Z,2.53
2023-01-10T16:02:24.845Z,3.58
2023-01-10T16:04:55.662Z,3.38
2023-01-10T16:07:27.686Z,3.17
2023-01-10T16:10:04.102Z,2.88
2023-01-10T16:12:59.677Z,2.65
2023-01-10T16:15:31.674Z,2.88
2023-01-10T16:17:58.484Z,2.28
2023-01-10T16:20:37.071Z,2.20
2023-01-10T16:23:05.124Z,2.05
2023-01-10T16:25:34.565Z,2.53
2023-01-10T16:28:01.620Z,3.22
2023-01-10T16:30:30.724Z,2.40
2023-01-10T16:32:58.637Z,3.17
2023-01-10T16:35:25.966Z,3.80
2023-01-10T16:37:57.576Z,2.25
2023-01-10T16:40:29.265Z,3.67
2023-01-10T16:43:14.923Z,2.65
2023-01-10T16:45:41.530Z,2.17
2023-01-10T16:48:08.889Z,2.17
2023-01-10T16:50:35.499Z,4.70
2023-01-10T16:53:06.116Z,2.15
2023-01-10T16:55:52.562Z,2.80
2023-01-10T16:58:20.249Z,3.50
2023-01-10T17:00:51.562Z,2.83
2023-01-10T17:03:22.688Z,2.25
2023-01-10T17:05:49.914Z,2.30
2023-01-10T17:08:21.696Z,3.03
2023-01-10T17:10:51.385Z,2.75
2023-01-10T17:13:23.814Z,3.10
2023-01-10T17:15:51.386Z,1.55
2023-01-10T17:18:18.236Z,3.17
2023-01-10T17:20:45.292Z,2.28
2023-01-10T17:23:15.033Z,2.25
2023-01-10T17:25:41.966Z,2.90
2023-01-10T17:28:09.907Z,4.13
2023-01-10T17:30:36.476Z,2.38
2023-01-10T17:33:03.093Z,2.17
2023-01-10T17:35:32.444Z,2.33
2023-01-10T17:37:59.076Z,2.85
2023-01-10T17:40:26.053Z,1.70
2023-01-10T17:42:52.756Z,2.22
2023-01-10T17:45:20.141Z,2.67
2023-01-10T17:47:46.753Z,1.95
2023-01-10T17:50:13.422Z,1.95
2023-01-10T17:52:39.949Z,2.50
2023-01-10T17:55:07.780Z,2.28
2023-01-10T17:57:38.079Z,2.35
2023-01-10T18:00:05.821Z,2.47
2023-01-10T18:02:32.615Z,3.10
2023-01-10T18:04:59.206Z,2.80
2023-01-10T18:07:25.756Z,2.78
2023-01-10T18:09:52.980Z,3.13
2023-01-10T18:12:19.607Z,2.78
2023-01-10T18:14:46.956Z,2.90
2023-01-10T18:17:13.596Z,2.60
2023-01-10T18:19:40.199Z,2.95
2023-01-10T18:22:25.970Z,2.63
2023-01-10T18:24:53.742Z,2.58
2023-01-10T18:27:21.786Z,2.92
2023-01-10T18:29:49.789Z,2.38
2023-01-10T18:32:17.015Z,3.13
2023-01-10T18:34:43.616Z,2.20
2023-01-10T18:37:10.624Z,3.05
2023-01-10T18:39:37.278Z,2.33
2023-01-10T18:42:03.970Z,2.30
2023-01-10T18:44:30.603Z,2.33
2023-01-10T18:46:57.145Z,2.17
2023-01-10T18:49:23.718Z,2.42
2023-01-10T18:51:50.253Z,2.58
2023-01-10T18:54:16.897Z,2.15
2023-01-10T18:56:43.566Z,2.58
2023-01-10T18:59:10.120Z,2.42
2023-01-10T19:01:36.766Z,2.42
2023-01-10T19:04:05.041Z,2.10
2023-01-10T19:06:31.643Z,2.50
2023-01-10T19:08:58.231Z,2.70
2023-01-10T19:11:24.862Z,2.72
2023-01-10T19:13:53.905Z,2.67
2023-01-10T19:16:26.724Z,3.17
2023-01-10T19:19:06.821Z,2.63
2023-01-10T19:21:34.069Z,3.03
2023-01-10T19:24:02.784Z,2.20
2023-01-10T19:26:29.493Z,2.55
2023-01-10T19:28:56.107Z,2.78
2023-01-10T19:31:25.259Z,2.35
2023-01-10T19:33:52.385Z,2.80
2023-01-10T19:36:20.933Z,2.85
2023-01-10T19:41:14.970Z,3.00
2023-01-10T19:43:41.564Z,2.65
2023-01-10T19:46:09.782Z,2.42
2023-01-10T19:48:38.313Z,2.88
2023-01-10T19:51:09.666Z,2.75
2023-01-10T19:53:37.887Z,2.42
2023-01-10T19:56:07.472Z,2.55
2023-01-10T19:58:35.122Z,2.65
2023-01-10T20:01:12.040Z,2.70
2023-01-10T20:03:41.112Z,3.05
2023-01-10T20:06:14.300Z,2.83
2023-01-10T20:08:41.549Z,2.97
2023-01-10T20:11:08.176Z,2.60
2023-01-10T20:13:37.288Z,2.72
2023-01-10T20:16:05.180Z,4.13
2023-01-10T20:18:32.095Z,2.95
2023-01-10T20:20:58.796Z,2.83
2023-01-10T20:23:25.519Z,2.72
2023-01-10T20:26:02.280Z,2.72
2023-01-10T20:28:29.292Z,4.63
2023-01-10T20:30:56.156Z,3.58
2023-01-10T20:33:23.046Z,2.78
2023-01-10T20:36:04.276Z,2.97
2023-01-10T20:38:32.283Z,2.75
2023-01-10T20:41:00.661Z,2.90
2023-01-10T20:43:27.795Z,3.05
2023-01-10T20:45:54.899Z,2.65
2023-01-10T20:48:22.257Z,2.97
2023-01-10T20:50:49.099Z,2.67
2023-01-10T20:53:16.402Z,2.63
2023-01-10T20:55:44.215Z,3.08
2023-01-10T20:58:12.060Z,2.20
2023-01-10T21:00:38.902Z,2.20
2023-01-10T21:03:06.432Z,2.33
2023-01-10T21:05:33.226Z,2.33
2023-01-10T21:07:59.773Z,2.92
2023-01-10T21:10:26.313Z,2.40
2023-01-10T21:12:52.916Z,2.28
2023-01-10T21:15:20.817Z,2.40
2023-01-10T21:17:50.481Z,2.97
2023-01-10T21:20:17.126Z,2.72
2023-01-10T21:22:44.387Z,2.10
2023-01-10T21:25:11.133Z,2.05
2023-01-10T21:27:37.661Z,1.80
2023-01-10T21:30:06.289Z,1.95
2023-01-10T21:32:33.160Z,2.05
2023-01-10T21:34:59.791Z,1.77
2023-01-10T21:37:26.348Z,1.92
2023-01-10T21:39:52.922Z,2.22
2023-01-10T21:42:34.873Z,1.60
2023-01-10T21:45:01.993Z,1.92
2023-01-10T21:47:28.662Z,2.17
2023-01-10T21:49:55.310Z,1.70
2023-01-10T21:52:21.971Z,1.40
2023-01-10T21:54:48.633Z,1.60
2023-01-10T21:57:19.210Z,1.30
2023-01-10T21:59:45.790Z,1.40
2023-01-10T22:02:12.853Z,1.55
2023-01-10T22:04:39.599Z,1.45
2023-01-10T22:07:06.138Z,1.38
2023-01-10T22:09:32.848Z,1.63
2023-01-10T22:11:59.402Z,1.25
2023-01-10T22:14:25.969Z,1.40
2023-01-10T22:16:52.560Z,1.95
2023-01-10T22:19:19.142Z,1.45
2023-01-10T22:21:45.733Z,1.50
2023-01-10T22:24:12.302Z,1.27
2023-01-10T22:26:38.979Z,1.63
2023-01-10T22:29:05.680Z,1.77
2023-01-10T22:31:32.355Z,1.60
2023-01-10T22:33:58.980Z,1.70
2023-01-10T22:36:25.548Z,1.65
2023-01-10T22:38:52.128Z,1.83
2023-01-10T22:41:21.031Z,1.58
2023-01-10T22:43:47.724Z,1.38
2023-01-10T22:46:15.938Z,1.42
2023-01-10T22:48:43.278Z,2.10
2023-01-10T22:51:09.845Z,1.40
2023-01-10T22:53:36.461Z,1.80
2023-01-10T22:56:05.095Z,1.40
2023-01-10T22:58:31.930Z,1.33
2023-01-10T23:00:58.523Z,1.40
2023-01-10T23:03:25.251Z,1.33
2023-01-10T23:05:56.507Z,1.40
2023-01-10T23:08:23.825Z,1.40
2023-01-10T23:10:50.426Z,1.35
2023-01-10T23:13:17.005Z,1.30
2023-01-10T23:15:43.572Z,1.40
2023-01-10T23:18:10.151Z,1.35
2023-01-10T23:20:36.923Z,1.48
2023-01-10T23:23:03.538Z,1.35
2023-01-10T23:25:30.144Z,1.75
2023-01-10T23:27:56.708Z,1.30
2023-01-10T23:30:26.633Z,1.20
2023-01-10T23:32:53.695Z,1.10
2023-01-10T23:35:20.324Z,1.40
2023-01-10T23:37:46.923Z,1.45
2023-01-10T23:40:13.735Z,1.27
2023-01-10T23:42:40.301Z,1.30
2023-01-10T23:45:07.512Z,1.52
2023-01-10T23:47:34.137Z,1.40
2023-01-10T23:50:00.742Z,1.10
2023-01-10T23:52:27.333Z,1.20
2023-01-10T23:54:53.905Z,1.33
2023-01-10T23:57:20.488Z,1.27
2023-01-10T23:59:47.070Z,1.10
